createdAt,value
2022-11-05T00:00:45.040Z,9.82
2022-11-05T00:03:32.688Z,10.65
2022-11-05T00:06:20.311Z,6.43
2022-11-05T00:09:07.799Z,8.13
2022-11-05T00:11:54.444Z,8.20
2022-11-05T00:14:41.701Z,6.30
2022-11-05T00:17:10.509Z,6.82
2022-11-05T00:19:39.953Z,7.43
2022-11-05T00:22:27.789Z,8.45
2022-11-05T00:25:14.766Z,6.95
2022-11-05T00:27:47.121Z,7.87
2022-11-05T00:30:22.637Z,8.57
2022-11-05T00:32:52.985Z,7.07
2022-11-05T00:35:23.065Z,9.73
2022-11-05T00:37:53.952Z,8.75
2022-11-05T00:40:22.577Z,8.15
2022-11-05T00:43:10.569Z,10.38
2022-11-05T00:45:40.027Z,7.75
2022-11-05T00:48:26.950Z,8.32
2022-11-05T00:50:56.525Z,7.00
2022-11-05T00:53:24.701Z,8.48
2022-11-05T00:55:53.180Z,7.50
2022-11-05T00:58:24.041Z,8.52
2022-11-05T01:00:56.462Z,6.87
2022-11-05T01:03:33.286Z,7.35
2022-11-05T01:06:13.326Z,7.03
2022-11-05T01:08:44.165Z,7.37
2022-11-05T01:11:39.523Z,7.57
2022-11-05T01:14:12.717Z,6.47
2022-11-05T01:16:41.051Z,8.15
2022-11-05T01:19:11.016Z,8.70
2022-11-05T01:21:38.814Z,7.60
2022-11-05T01:24:08.460Z,8.15
2022-11-05T01:26:36.379Z,6.32
2022-11-05T01:29:03.786Z,8.90
2022-11-05T01:31:33.238Z,7.57
2022-11-05T01:34:03.538Z,7.80
2022-11-05T01:36:34.000Z,8.95
2022-11-05T01:39:04.757Z,8.02
2022-11-05T01:41:35.014Z,9.80
2022-11-05T01:44:03.791Z,8.57
2022-11-05T01:46:43.699Z,9.13
2022-11-05T01:49:22.587Z,10.73
2022-11-05T01:51:52.053Z,10.93
2022-11-05T01:54:23.205Z,9.90
2022-11-05T01:57:04.434Z,10.20
2022-11-05T01:59:37.391Z,9.02
2022-11-05T02:02:07.956Z,9.60
2022-11-05T02:04:46.084Z,9.18
2022-11-05T02:07:15.786Z,10.45
2022-11-05T02:10:01.961Z,10.27
2022-11-05T02:12:32.609Z,11.23
2022-11-05T02:15:02.904Z,10.77
2022-11-05T02:18:00.612Z,10.98
2022-11-05T02:20:36.071Z,12.15
2022-11-05T02:23:18.732Z,12.30
2022-11-05T02:26:14.374Z,10.82
2022-11-05T02:29:28.606Z,10.23
2022-11-05T02:32:25.096Z,10.35
2022-11-05T02:35:00.001Z,12.68
2022-11-05T02:40:26.367Z,13.15
2022-11-05T02:43:05.752Z,10.88
2022-11-05T02:46:09.207Z,11.30
2022-11-05T02:48:56.466Z,13.82
2022-11-05T02:51:35.605Z,13.60
2022-11-05T02:54:18.583Z,11.95
2022-11-05T02:56:48.658Z,12.82
2022-11-05T02:59:18.714Z,10.77
2022-11-05T03:01:48.502Z,13.05
2022-11-05T03:04:22.969Z,12.77
2022-11-05T03:07:17.144Z,13.75
2022-11-05T03:10:02.259Z,12.15
2022-11-05T03:12:50.795Z,14.43
2022-11-05T03:15:38.252Z,10.95
2022-11-05T03:18:30.831Z,11.15
2022-11-05T03:21:02.910Z,12.13
2022-11-05T03:23:45.727Z,10.57
2022-11-05T03:26:31.095Z,12.05
2022-11-05T03:29:13.443Z,11.15
2022-11-05T03:31:43.422Z,10.20
2022-11-05T03:34:13.650Z,11.85
2022-11-05T03:36:46.247Z,12.60
2022-11-05T03:39:20.194Z,11.27
2022-11-05T03:41:53.325Z,10.48
2022-11-05T03:44:30.598Z,12.00
2022-11-05T03:47:07.298Z,9.02
2022-11-05T03:49:49.875Z,10.32
2022-11-05T03:52:21.490Z,11.27
2022-11-05T03:54:51.925Z,9.93
2022-11-05T03:57:25.898Z,10.07
2022-11-05T03:59:55.153Z,12.20
2022-11-05T04:02:26.613Z,9.40
2022-11-05T04:04:56.135Z,10.45
2022-11-05T04:07:43.853Z,9.45
2022-11-05T04:10:32.563Z,10.68
2022-11-05T04:13:20.353Z,9.55
2022-11-05T04:16:09.806Z,11.68
2022-11-05T04:18:38.783Z,9.93
2022-11-05T04:21:25.870Z,11.68
2022-11-05T04:24:09.711Z,10.27
2022-11-05T04:26:40.053Z,10.23
2022-11-05T04:29:27.070Z,10.65
2022-11-05T04:31:56.616Z,10.45
2022-11-05T04:34:26.359Z,12.63
2022-11-05T04:36:56.336Z,9.45
2022-11-05T04:39:25.349Z,10.45
2022-11-05T04:41:54.901Z,11.70
2022-11-05T04:44:23.289Z,9.25
2022-11-05T04:46:53.788Z,8.82
2022-11-05T04:49:24.224Z,10.07
2022-11-05T04:51:52.702Z,10.77
2022-11-05T04:54:20.984Z,11.40
2022-11-05T04:56:48.884Z,9.75
2022-11-05T04:59:22.760Z,12.95
2022-11-05T05:01:53.722Z,10.53
2022-11-05T05:04:23.609Z,10.93
2022-11-05T05:06:51.050Z,9.60
2022-11-05T05:09:20.255Z,7.95
2022-11-05T05:11:49.637Z,8.65
2022-11-05T05:14:17.906Z,8.95
2022-11-05T05:16:45.911Z,9.15
2022-11-05T05:19:16.541Z,9.48
2022-11-05T05:21:46.359Z,7.70
2022-11-05T05:24:19.259Z,8.68
2022-11-05T05:26:50.281Z,7.12
2022-11-05T05:29:19.518Z,9.25
2022-11-05T05:31:47.371Z,7.40
2022-11-05T05:34:14.909Z,7.20
2022-11-05T05:36:43.398Z,6.35
2022-11-05T05:39:13.168Z,7.00
2022-11-05T05:41:41.701Z,7.95
2022-11-05T05:44:10.329Z,5.80
2022-11-05T05:46:38.933Z,6.28
2022-11-05T05:49:12.537Z,6.60
2022-11-05T05:51:42.322Z,7.15
2022-11-05T05:54:12.538Z,6.62
2022-11-05T05:56:46.323Z,6.95
2022-11-05T05:59:14.614Z,6.57
2022-11-05T06:01:43.855Z,5.32
2022-11-05T06:04:12.933Z,6.03
2022-11-05T06:06:42.605Z,6.12
2022-11-05T06:09:12.345Z,5.97
2022-11-05T06:11:41.687Z,6.85
2022-11-05T06:14:12.251Z,5.03
2022-11-05T06:16:42.395Z,6.30
2022-11-05T06:19:11.765Z,6.28
2022-11-05T06:21:41.255Z,5.82
2022-11-05T06:24:11.959Z,6.20
2022-11-05T06:26:44.464Z,6.82
2022-11-05T06:29:12.572Z,6.03
2022-11-05T06:31:43.286Z,6.25
2022-11-05T06:34:11.606Z,5.75
2022-11-05T06:36:40.341Z,5.85
2022-11-05T06:39:13.284Z,6.07
2022-11-05T06:42:16.455Z,6.53
2022-11-05T06:44:38.564Z,6.53
2022-11-05T06:47:09.871Z,5.65
2022-11-05T06:49:41.030Z,7.30
2022-11-05T06:52:10.715Z,6.93
2022-11-05T06:54:39.817Z,6.30
2022-11-05T06:57:10.044Z,6.32
2022-11-05T06:59:42.272Z,8.10
2022-11-05T07:02:14.433Z,5.33
2022-11-05T07:04:42.646Z,4.70
2022-11-05T07:07:10.286Z,4.72
2022-11-05T07:09:43.842Z,5.50
2022-11-05T07:12:11.903Z,5.12
2022-11-05T07:14:40.730Z,4.95
2022-11-05T07:17:09.128Z,4.95
2022-11-05T07:19:38.461Z,5.20
2022-11-05T07:22:08.250Z,6.22
2022-11-05T07:24:42.129Z,5.10
2022-11-05T07:27:12.596Z,6.18
2022-11-05T07:29:41.015Z,4.32
2022-11-05T07:32:09.301Z,4.82
2022-11-05T07:34:37.930Z,3.85
2022-11-05T07:37:09.159Z,4.62
2022-11-05T07:39:38.172Z,5.28
2022-11-05T07:42:06.727Z,3.40
2022-11-05T07:44:34.661Z,5.15
2022-11-05T07:47:05.014Z,4.65
2022-11-05T07:49:37.503Z,4.05
2022-11-05T07:52:07.510Z,4.93
2022-11-05T07:54:36.338Z,3.62
2022-11-05T07:57:05.214Z,4.95
2022-11-05T07:59:34.139Z,5.80
2022-11-05T08:02:03.805Z,8.15
2022-11-05T08:04:44.424Z,5.20
2022-11-05T08:07:14.184Z,3.83
2022-11-05T08:09:47.205Z,5.80
2022-11-05T08:12:16.326Z,4.07
2022-11-05T08:14:47.171Z,4.10
2022-11-05T08:17:18.555Z,4.50
2022-11-05T08:19:49.785Z,3.85
2022-11-05T08:22:18.591Z,4.07
2022-11-05T08:24:48.348Z,4.82
2022-11-05T08:27:18.376Z,5.05
2022-11-05T08:29:47.614Z,4.97
2022-11-05T08:32:16.837Z,5.60
2022-11-05T08:34:46.597Z,4.65
2022-11-05T08:37:15.654Z,6.22
2022-11-05T08:39:44.636Z,4.55
2022-11-05T08:42:15.115Z,4.32
2022-11-05T08:44:44.072Z,4.87
2022-11-05T08:47:18.612Z,6.62
2022-11-05T08:49:49.022Z,4.97
2022-11-05T08:52:18.958Z,5.18
2022-11-05T08:54:48.207Z,7.22
2022-11-05T08:57:17.447Z,6.35
2022-11-05T08:59:45.523Z,5.40
2022-11-05T09:02:15.291Z,4.68
2022-11-05T09:04:45.334Z,5.53
2022-11-05T09:07:14.874Z,5.95
2022-11-05T09:09:43.364Z,4.87
2022-11-05T09:12:12.981Z,5.50
2022-11-05T09:14:43.078Z,4.93
2022-11-05T09:17:21.770Z,5.72
2022-11-05T09:19:50.329Z,3.22
2022-11-05T09:22:19.173Z,5.28
2022-11-05T09:25:10.620Z,5.55
2022-11-05T09:27:42.128Z,5.75
2022-11-05T09:30:21.773Z,4.90
2022-11-05T09:32:51.900Z,5.40
2022-11-05T09:35:20.834Z,5.45
2022-11-05T09:37:50.578Z,6.85
2022-11-05T09:40:19.976Z,6.20
2022-11-05T09:42:53.304Z,5.82
2022-11-05T09:45:26.096Z,6.65
2022-11-05T09:48:02.481Z,6.68
2022-11-05T09:50:38.357Z,6.12
2022-11-05T09:53:08.946Z,7.50
2022-11-05T09:55:42.107Z,5.78
2022-11-05T09:58:32.850Z,7.93
2022-11-05T10:01:04.474Z,5.85
2022-11-05T10:03:34.593Z,7.18
2022-11-05T10:06:09.089Z,6.28
2022-11-05T10:08:44.881Z,6.12
2022-11-05T10:11:39.139Z,8.02
2022-11-05T10:14:23.833Z,7.43
2022-11-05T10:17:11.973Z,9.73
2022-11-05T10:19:51.259Z,5.93
2022-11-05T10:22:21.627Z,7.50
2022-11-05T10:24:55.382Z,4.90
2022-11-05T10:27:31.508Z,5.40
2022-11-05T10:30:02.495Z,9.65
2022-11-05T10:32:37.195Z,5.95
2022-11-05T10:35:12.881Z,7.75
2022-11-05T10:37:42.639Z,6.35
2022-11-05T10:40:25.170Z,8.93
2022-11-05T10:43:14.595Z,5.55
2022-11-05T10:46:08.438Z,7.15
2022-11-05T10:48:53.109Z,7.37
2022-11-05T10:51:22.448Z,6.72
2022-11-05T10:54:00.500Z,6.43
2022-11-05T10:56:38.168Z,6.85
2022-11-05T10:59:19.829Z,6.12
2022-11-05T11:01:47.862Z,7.37
2022-11-05T11:04:27.951Z,6.90
2022-11-05T11:07:00.925Z,5.37
2022-11-05T11:09:35.921Z,6.07
2022-11-05T11:12:21.722Z,6.47
2022-11-05T11:15:05.737Z,6.03
2022-11-05T11:17:35.954Z,7.07
2022-11-05T11:20:20.531Z,7.37
2022-11-05T11:23:03.491Z,6.15
2022-11-05T11:25:51.525Z,5.87
2022-11-05T11:28:28.128Z,5.72
2022-11-05T11:31:04.802Z,7.85
2022-11-05T11:33:35.703Z,6.03
2022-11-05T11:36:04.244Z,8.25
2022-11-05T11:38:34.717Z,5.65
2022-11-05T11:41:15.676Z,7.35
2022-11-05T11:43:45.564Z,5.72
2022-11-05T11:46:19.694Z,5.97
2022-11-05T11:48:50.572Z,7.15
2022-11-05T11:51:41.400Z,4.82
2022-11-05T11:54:29.026Z,5.82
2022-11-05T11:56:58.790Z,5.95
2022-11-05T12:00:01.838Z,6.43
2022-11-05T12:02:41.436Z,6.12
2022-11-05T12:05:20.327Z,5.85
2022-11-05T12:07:58.761Z,5.93
2022-11-05T12:11:03.607Z,5.68
2022-11-05T12:13:42.490Z,7.45
2022-11-05T12:16:42.863Z,8.13
2022-11-05T12:19:39.461Z,6.47
2022-11-05T12:22:30.903Z,11.63
2022-11-05T12:25:23.597Z,6.15
2022-11-05T12:27:59.499Z,5.65
2022-11-05T12:30:52.599Z,5.05
2022-11-05T12:33:43.203Z,5.47
2022-11-05T12:36:34.484Z,6.60
2022-11-05T12:39:06.469Z,5.43
2022-11-05T12:41:49.924Z,6.43
2022-11-05T12:44:42.861Z,8.23
2022-11-05T12:47:49.038Z,5.62
2022-11-05T12:50:28.803Z,6.15
2022-11-05T12:53:01.596Z,4.62
2022-11-05T12:55:48.113Z,6.07
2022-11-05T12:58:22.078Z,4.93
2022-11-05T13:00:57.670Z,4.45
2022-11-05T13:03:36.230Z,6.45
2022-11-05T13:06:16.231Z,5.20
2022-11-05T13:09:04.661Z,4.87
2022-11-05T13:12:03.288Z,4.93
2022-11-05T13:14:41.065Z,4.90
2022-11-05T13:17:20.834Z,4.25
2022-11-05T13:20:17.620Z,3.78
2022-11-05T13:23:04.047Z,4.20
2022-11-05T13:25:36.737Z,5.00
2022-11-05T13:28:25.175Z,4.70
2022-11-05T13:31:02.006Z,4.15
2022-11-05T13:33:35.958Z,3.85
2022-11-05T13:36:39.180Z,3.87
2022-11-05T13:39:30.829Z,3.60
2022-11-05T13:42:21.553Z,3.40
2022-11-05T13:45:30.861Z,3.95
2022-11-05T13:48:48.469Z,4.50
2022-11-05T13:51:48.182Z,5.35
2022-11-05T13:54:23.890Z,5.12
2022-11-05T13:57:22.562Z,3.55
2022-11-05T14:00:17.560Z,3.28
2022-11-05T14:02:52.064Z,4.68
2022-11-05T14:05:29.283Z,5.32
2022-11-05T14:08:01.688Z,4.30
2022-11-05T14:10:39.302Z,3.42
2022-11-05T14:13:27.766Z,4.85
2022-11-05T14:16:09.913Z,5.12
2022-11-05T14:18:42.426Z,6.05
2022-11-05T14:21:47.766Z,4.35
2022-11-05T14:24:22.699Z,4.80
2022-11-05T14:27:03.357Z,5.07
2022-11-05T14:29:42.754Z,4.75
2022-11-05T14:32:20.221Z,6.82
2022-11-05T14:35:16.145Z,4.85
2022-11-05T14:38:28.699Z,5.30
2022-11-05T14:41:01.165Z,6.82
2022-11-05T14:43:37.521Z,6.07
2022-11-05T14:46:08.963Z,5.80
2022-11-05T14:48:43.442Z,5.68
2022-11-05T14:51:34.095Z,4.85
2022-11-05T14:54:26.198Z,5.40
2022-11-05T14:57:00.109Z,5.85
2022-11-05T14:59:32.619Z,5.28
2022-11-05T15:02:07.531Z,3.12
2022-11-05T15:04:45.827Z,8.30
2022-11-05T15:07:32.288Z,4.57
2022-11-05T15:10:21.224Z,4.70
2022-11-05T15:12:58.305Z,4.07
2022-11-05T15:15:32.793Z,3.80
2022-11-05T15:18:32.607Z,4.78
2022-11-05T15:21:02.664Z,5.50
2022-11-05T15:23:46.113Z,5.45
2022-11-05T15:26:20.011Z,4.45
2022-11-05T15:28:51.884Z,3.53
2022-11-05T15:31:41.432Z,6.18
2022-11-05T15:34:35.561Z,4.57
2022-11-05T15:37:10.971Z,6.47
2022-11-05T15:39:41.105Z,5.70
2022-11-05T15:42:18.451Z,3.60
2022-11-05T15:44:55.482Z,4.93
2022-11-05T15:47:36.612Z,5.87
2022-11-05T15:50:17.750Z,5.07
2022-11-05T15:52:51.017Z,5.80
2022-11-05T15:55:25.224Z,5.68
2022-11-05T15:58:08.585Z,4.07
2022-11-05T16:00:48.787Z,4.80
2022-11-05T16:03:34.512Z,4.87
2022-11-05T16:06:03.777Z,5.32
2022-11-05T16:08:32.706Z,5.35
2022-11-05T16:11:03.640Z,4.85
2022-11-05T16:13:38.565Z,4.62
2022-11-05T16:16:15.155Z,4.35
2022-11-05T16:18:45.840Z,5.50
2022-11-05T16:21:22.944Z,7.90
2022-11-05T16:23:52.926Z,4.57
2022-11-05T16:29:40.816Z,4.82
2022-11-05T16:32:30.999Z,4.62
2022-11-05T16:35:04.009Z,4.95
2022-11-05T16:37:46.452Z,3.05
2022-11-05T16:40:24.145Z,4.62
2022-11-05T16:42:54.652Z,4.35
2022-11-05T16:45:27.103Z,4.75
2022-11-05T16:47:55.609Z,5.30
2022-11-05T16:50:29.461Z,5.12
2022-11-05T16:52:59.524Z,5.05
2022-11-05T16:55:34.070Z,5.28
2022-11-05T16:58:02.894Z,5.00
2022-11-05T17:00:32.089Z,4.75
2022-11-05T17:03:02.522Z,5.45
2022-11-05T17:05:33.136Z,7.07
2022-11-05T17:08:04.027Z,4.72
2022-11-05T17:10:34.529Z,4.62
2022-11-05T17:13:05.708Z,6.03
2022-11-05T17:15:38.691Z,6.72
2022-11-05T17:18:11.630Z,6.15
2022-11-05T17:20:55.794Z,5.37
2022-11-05T17:23:28.109Z,5.50
2022-11-05T17:26:05.522Z,5.62
2022-11-05T17:28:39.802Z,7.20
2022-11-05T17:31:14.364Z,6.18
2022-11-05T17:33:44.998Z,5.93
2022-11-05T17:36:17.303Z,6.53
2022-11-05T17:38:47.403Z,5.68
2022-11-05T17:41:31.782Z,6.15
2022-11-05T17:44:15.151Z,7.25
2022-11-05T17:46:46.485Z,7.20
2022-11-05T17:49:17.124Z,5.40
2022-11-05T17:51:45.817Z,7.05
2022-11-05T17:54:16.244Z,5.85
2022-11-05T17:56:46.411Z,9.80
2022-11-05T17:59:16.100Z,17.00
2022-11-05T18:01:46.742Z,28.17
2022-11-05T18:04:16.974Z,24.05
2022-11-05T18:06:45.040Z,13.82
2022-11-05T18:09:14.716Z,13.32
2022-11-05T18:11:45.898Z,9.23
2022-11-05T18:14:16.757Z,8.25
2022-11-05T18:16:51.949Z,7.35
2022-11-05T18:19:21.822Z,8.18
2022-11-05T18:21:51.064Z,7.87
2022-11-05T18:24:20.456Z,8.90
2022-11-05T18:26:51.232Z,8.68
2022-11-05T18:29:22.407Z,7.25
2022-11-05T18:31:52.876Z,8.23
2022-11-05T18:34:23.735Z,7.43
2022-11-05T18:36:56.169Z,7.68
2022-11-05T18:39:28.001Z,6.80
2022-11-05T18:41:55.863Z,6.70
2022-11-05T18:44:27.433Z,10.00
2022-11-05T18:46:58.972Z,10.38
2022-11-05T18:49:30.159Z,10.32
2022-11-05T18:52:00.848Z,14.82
2022-11-05T18:54:31.046Z,14.90
2022-11-05T18:57:01.390Z,13.40
2022-11-05T18:59:38.273Z,10.02
2022-11-05T19:02:09.633Z,11.10
2022-11-05T19:04:39.477Z,9.02
2022-11-05T19:07:10.013Z,7.55
2022-11-05T19:09:40.988Z,6.85
2022-11-05T19:12:10.800Z,5.53
2022-11-05T19:14:40.534Z,7.00
2022-11-05T19:17:12.725Z,4.90
2022-11-05T19:19:44.612Z,5.28
2022-11-05T19:22:13.660Z,7.70
2022-11-05T19:24:43.248Z,5.50
2022-11-05T19:27:13.817Z,6.03
2022-11-05T19:29:43.652Z,5.62
2022-11-05T19:32:14.291Z,4.62
2022-11-05T19:34:45.295Z,6.82
2022-11-05T19:37:14.540Z,6.85
2022-11-05T19:39:44.793Z,7.18
2022-11-05T19:42:14.684Z,5.90
2022-11-05T19:44:44.331Z,6.97
2022-11-05T19:47:14.396Z,6.85
2022-11-05T19:49:45.169Z,6.07
2022-11-05T19:52:13.651Z,6.82
2022-11-05T19:54:47.305Z,8.20
2022-11-05T19:57:17.570Z,6.43
2022-11-05T19:59:48.702Z,7.97
2022-11-05T20:02:19.523Z,7.53
2022-11-05T20:04:52.252Z,7.18
2022-11-05T20:07:22.972Z,8.82
2022-11-05T20:10:03.417Z,8.15
2022-11-05T20:12:37.141Z,8.43
2022-11-05T20:17:39.727Z,8.45
2022-11-05T20:20:13.895Z,6.43
2022-11-05T20:22:49.115Z,6.90
2022-11-05T20:25:18.133Z,7.03
2022-11-05T20:27:48.784Z,6.97
2022-11-05T20:30:18.278Z,6.70
2022-11-05T20:32:48.006Z,5.97
2022-11-05T20:35:16.715Z,5.57
2022-11-05T20:37:48.537Z,6.62
2022-11-05T20:40:21.131Z,6.07
2022-11-05T20:42:50.203Z,6.25
2022-11-05T20:45:22.117Z,6.78
2022-11-05T20:47:56.453Z,5.53
2022-11-05T20:50:26.509Z,5.53
2022-11-05T20:52:55.965Z,7.55
2022-11-05T20:55:27.858Z,6.65
2022-11-05T20:57:57.962Z,6.28
2022-11-05T21:00:29.752Z,6.85
2022-11-05T21:03:00.829Z,6.28
2022-11-05T21:05:35.631Z,7.93
2022-11-05T21:08:05.640Z,5.60
2022-11-05T21:10:36.474Z,6.07
2022-11-05T21:13:10.725Z,5.97
2022-11-05T21:15:41.026Z,6.12
2022-11-05T21:18:11.111Z,5.85
2022-11-05T21:20:40.981Z,6.50
2022-11-05T21:23:12.026Z,6.18
2022-11-05T21:25:42.491Z,8.65
2022-11-05T21:28:15.775Z,5.62
2022-11-05T21:30:47.745Z,7.87
2022-11-05T21:33:19.612Z,7.62
2022-11-05T21:35:50.238Z,6.93
2022-11-05T21:38:20.802Z,6.62
2022-11-05T21:40:50.670Z,6.72
2022-11-05T21:43:26.065Z,7.40
2022-11-05T21:45:55.515Z,7.78
2022-11-05T21:48:24.084Z,6.62
2022-11-05T21:51:12.034Z,7.87
2022-11-05T21:54:00.916Z,6.70
2022-11-05T21:56:50.368Z,6.40
2022-11-05T21:59:41.321Z,7.43
2022-11-05T22:02:13.213Z,7.07
2022-11-05T22:04:46.862Z,6.93
2022-11-05T22:07:19.190Z,6.93
2022-11-05T22:09:49.050Z,6.05
2022-11-05T22:12:19.491Z,8.27
2022-11-05T22:14:49.036Z,4.87
2022-11-05T22:17:20.221Z,5.75
2022-11-05T22:19:49.542Z,6.15
2022-11-05T22:22:17.572Z,6.65
2022-11-05T22:24:46.272Z,6.45
2022-11-05T22:27:18.219Z,7.12
2022-11-05T22:29:47.336Z,6.25
2022-11-05T22:32:18.508Z,6.62
2022-11-05T22:34:49.555Z,7.57
2022-11-05T22:37:18.498Z,6.93
2022-11-05T22:39:48.905Z,8.75
2022-11-05T22:42:17.810Z,8.13
2022-11-05T22:44:48.799Z,8.23
2022-11-05T22:47:18.655Z,9.57
2022-11-05T22:49:50.482Z,10.38
2022-11-05T22:52:20.602Z,10.80
2022-11-05T22:54:50.569Z,12.07
2022-11-05T22:57:19.625Z,13.68
2022-11-05T22:59:47.901Z,11.60
2022-11-05T23:02:15.708Z,11.57
2022-11-05T23:04:45.110Z,10.52
2022-11-05T23:07:33.056Z,10.27
2022-11-05T23:10:20.778Z,10.63
2022-11-05T23:12:54.029Z,11.07
2022-11-05T23:15:42.424Z,10.77
2022-11-05T23:18:29.398Z,10.18
2022-11-05T23:21:22.715Z,11.23
2022-11-05T23:24:06.750Z,11.05
2022-11-05T23:26:50.484Z,11.15
2022-11-05T23:29:23.585Z,11.10
2022-11-05T23:32:12.979Z,10.77
2022-11-05T23:34:42.189Z,15.50
2022-11-05T23:37:31.783Z,11.70
2022-11-05T23:40:00.214Z,11.98
2022-11-05T23:42:49.705Z,10.93
2022-11-05T23:45:38.166Z,9.75
2022-11-05T23:48:19.678Z,11.05
2022-11-05T23:50:56.523Z,11.07
2022-11-05T23:53:27.602Z,10.38
2022-11-05T23:56:00.723Z,9.20
2022-11-05T23:58:29.806Z,12.23
